Toyo Eagle — H3LY — position and weather

sailwx.info

Track history (hours):
 
Tides and Currents Weather Stations Pressure Air Temp Water Temp Dewpoint Dewpoint Depression Visibility Wind Speed Wind Dir Waves Ship Positions

Toyo Eagle

Last reported at 2016-Feb-13 18:16 UTC. Time now 2016-Feb-14 05:59 UTC.
Position N 35°12' E 130°22'.

Length 108 m; draft 7.9 m.

Type: Cargo ship. MMSI: 355327000.

Date/timePositionNaut miles runAvg speedWind from/ knotsBaromVisibWave heightAir tempDewpointWater temp
2016-Feb-13 18:16N 35°12' E 130°22'6 7.7
2016-Feb-13 17:33N 35°13' E 130°29'9 9.0
2016-Feb-13 16:33N 35°14' E 130°39'10 9.8
2016-Feb-13 15:33N 35°16' E 130°51'10 9.9
2016-Feb-13 14:33N 35°18' E 131°03'1110.7
2016-Feb-13 13:33N 35°19' E 131°16'1110.8
2016-Feb-13 12:33N 35°21' E 131°29'1111.1
2016-Feb-13 11:33N 35°23' E 131°43'1111.1
2016-Feb-13 10:33N 35°25' E 131°56'1111.3
2016-Feb-13 09:33N 35°27' E 132°10'1111.1
2016-Feb-13 08:33N 35°28' E 132°23'1110.8
2016-Feb-13 07:32N 35°31' E 132°37'  
2016-Feb-07 16:28N 35°30' E 132°09'1112.3
2016-Feb-07 15:33N 35°28' E 131°55'1212.2
2016-Feb-07 14:33N 35°25' E 131°40'1212.5
2016-Feb-07 13:34N 35°23' E 131°26'1212.2
2016-Feb-07 12:33N 35°21' E 131°11'1211.8
2016-Feb-07 11:33N 35°18' E 130°57'1212.1
2016-Feb-07 10:33N 35°16' E 130°42'1212.4
2016-Feb-07 09:34N 35°13' E 130°27'1312.6
2016-Feb-07 08:33N 35°11' E 130°12'1312.3
2016-Feb-07 07:31N 35°09' E 129°57'  
Track history (hours):
 
Tides and Currents Weather Stations Pressure Air Temp Water Temp Dewpoint Dewpoint Depression Visibility Wind Speed Wind Dir Waves Ship Positions

Toyo Eagle

Last reported at 2016-Feb-13 18:16 UTC. Time now 2016-Feb-14 05:59 UTC.
Position N 35°12' E 130°22'.

Length 108 m; draft 7.9 m.

Type: Cargo ship. MMSI: 355327000.

Date/timePositionNaut miles runAvg speedWind from/ knotsBaromVisibWave heightAir tempDewpointWater temp
2016-Feb-13 18:16N 35°12' E 130°22'6 7.7
2016-Feb-13 17:33N 35°13' E 130°29'9 9.0
2016-Feb-13 16:33N 35°14' E 130°39'10 9.8
2016-Feb-13 15:33N 35°16' E 130°51'10 9.9
2016-Feb-13 14:33N 35°18' E 131°03'1110.7
2016-Feb-13 13:33N 35°19' E 131°16'1110.8
2016-Feb-13 12:33N 35°21' E 131°29'1111.1
2016-Feb-13 11:33N 35°23' E 131°43'1111.1
2016-Feb-13 10:33N 35°25' E 131°56'1111.3
2016-Feb-13 09:33N 35°27' E 132°10'1111.1
2016-Feb-13 08:33N 35°28' E 132°23'1110.8
2016-Feb-13 07:32N 35°31' E 132°37'  
2016-Feb-07 16:28N 35°30' E 132°09'1112.3
2016-Feb-07 15:33N 35°28' E 131°55'1212.2
2016-Feb-07 14:33N 35°25' E 131°40'1212.5
2016-Feb-07 13:34N 35°23' E 131°26'1212.2
2016-Feb-07 12:33N 35°21' E 131°11'1211.8
2016-Feb-07 11:33N 35°18' E 130°57'1212.1
2016-Feb-07 10:33N 35°16' E 130°42'1212.4
2016-Feb-07 09:34N 35°13' E 130°27'1312.6
2016-Feb-07 08:33N 35°11' E 130°12'1312.3
2016-Feb-07 07:31N 35°09' E 129°57'  

Dump ship's entire track history